Time;durP1;ratioP1;P1;durP2;ratioP2;P2;SDS_P1;SDS_P2;PMS_P1;PMS_P2;Temp;Humidity;BMP_temperature;BMP_pressure;BME280_temperature;BME280_humidity;BME280_pressure;Samples;Min_cycle;Max_cycle;Signal;HPM_P1;HPM_P2
2022/08/26 00:01:42;;;;;;;4.07;3.50;;;24.70;99.90;;;;;;6183515;23;20005;-75
2022/08/26 00:04:09;;;;;;;4.68;4.07;;;24.70;99.90;;;;;;6183591;23;20032;-74
2022/08/26 00:06:35;;;;;;;3.28;3.00;;;24.70;99.90;;;;;;6183407;23;20008;-74
2022/08/26 00:09:02;;;;;;;5.30;3.40;;;24.60;99.90;;;;;;6183451;23;20072;-74
2022/08/26 00:11:28;;;;;;;3.85;3.33;;;24.70;99.90;;;;;;6183570;23;20005;-75
2022/08/26 00:13:55;;;;;;;4.15;3.78;;;24.70;99.90;;;;;;6157029;23;20341;-74
2022/08/26 00:16:22;;;;;;;3.38;3.15;;;24.70;99.90;;;;;;6183297;23;20009;-74
2022/08/26 00:18:48;;;;;;;5.82;3.45;;;24.60;99.90;;;;;;6183543;23;20001;-75
2022/08/26 00:21:14;;;;;;;4.22;3.70;;;24.60;99.90;;;;;;6183239;23;20012;-75
2022/08/26 00:23:40;;;;;;;4.20;3.85;;;24.50;99.90;;;;;;6183284;23;20072;-75
2022/08/26 00:26:06;;;;;;;4.18;3.60;;;24.50;99.90;;;;;;6183510;23;20019;-74
2022/08/26 00:28:32;;;;;;;4.95;3.50;;;24.60;99.90;;;;;;6183406;23;20341;-74
2022/08/26 00:30:58;;;;;;;11.27;3.95;;;24.60;99.90;;;;;;6182917;23;20008;-75
2022/08/26 00:33:24;;;;;;;6.35;3.67;;;24.60;99.90;;;;;;6157140;23;20011;-74
2022/08/26 00:35:50;;;;;;;5.22;3.10;;;24.60;99.90;;;;;;6183082;23;20001;-74
2022/08/26 00:38:16;;;;;;;4.47;3.72;;;24.50;99.90;;;;;;6183127;23;20314;-74
2022/08/26 00:40:48;;;;;;;4.43;3.20;;;24.50;99.90;;;;;;6183313;23;20394;-74
2022/08/26 00:43:15;;;;;;;7.72;3.22;;;24.60;99.90;;;;;;6183436;23;20101;-74
2022/08/26 00:46:04;;;;;;;3.60;3.30;;;24.50;99.90;;;;;;6183307;23;20001;-75
2022/08/26 00:48:33;;;;;;;5.32;3.97;;;24.50;99.90;;;;;;6185066;23;20004;-75
2022/08/26 00:51:16;;;;;;;3.42;3.13;;;24.40;99.90;;;;;;6185187;23;20024;-74
2022/08/26 00:53:52;;;;;;;7.45;4.38;;;24.40;99.90;;;;;;6184864;23;20433;-75
2022/08/26 00:56:24;;;;;;;5.20;3.80;;;24.40;99.90;;;;;;6184988;23;19999;-75
2022/08/26 00:58:49;;;;;;;;;;;24.50;99.90;;;;;;6185583;23;20079;-75
2022/08/26 01:01:17;;;;;;;4.63;3.50;;;24.60;99.90;;;;;;6184737;23;20281;-75
2022/08/26 01:03:44;;;;;;;5.40;3.65;;;24.60;99.90;;;;;;6184868;23;20048;-75
2022/08/26 01:06:11;;;;;;;4.45;3.55;;;24.60;99.90;;;;;;6184577;23;20013;-75
2022/08/26 01:08:37;;;;;;;4.68;3.60;;;24.60;99.90;;;;;;6184843;23;19997;-74
2022/08/26 01:11:04;;;;;;;5.95;3.72;;;24.60;99.90;;;;;;6158352;23;20116;-75
2022/08/26 01:13:31;;;;;;;3.85;3.50;;;24.70;99.90;;;;;;6158330;23;20012;-75
2022/08/26 01:16:00;;;;;;;3.40;3.20;;;24.70;99.90;;;;;;6184907;23;20005;-75
2022/08/26 01:18:26;;;;;;;5.60;3.72;;;24.70;99.90;;;;;;6184752;23;20064;-74
2022/08/26 01:21:10;;;;;;;5.55;3.67;;;24.60;99.90;;;;;;6184451;23;20007;-75
2022/08/26 01:23:43;;;;;;;3.72;3.42;;;24.70;99.90;;;;;;6158245;23;20012;-74
2022/08/26 01:26:14;;;;;;;5.13;3.75;;;24.70;99.90;;;;;;6184517;23;20076;-75
2022/08/26 01:28:41;;;;;;;4.00;3.70;;;24.70;99.90;;;;;;6184711;23;20391;-75
2022/08/26 01:31:10;;;;;;;3.38;3.17;;;24.80;99.90;;;;;;6184598;23;20456;-75
2022/08/26 01:34:05;;;;;;;5.78;3.90;;;24.70;99.90;;;;;;6184651;23;20076;-75
2022/08/26 01:36:31;;;;;;;3.88;3.67;;;24.70;99.90;;;;;;6158270;23;20012;-75
2022/08/26 01:38:57;;;;;;;3.97;3.20;;;24.70;99.90;;;;;;6184436;23;20004;-75
2022/08/26 01:41:23;;;;;;;3.95;3.55;;;24.70;99.90;;;;;;6184540;23;20012;-75
2022/08/26 01:43:53;;;;;;;6.60;3.65;;;24.70;99.90;;;;;;6184404;23;20001;-75
2022/08/26 01:46:22;;;;;;;4.18;3.45;;;24.60;99.90;;;;;;6184183;23;20004;-75
2022/08/26 01:48:49;;;;;;;6.75;4.35;;;24.60;99.90;;;;;;6184344;23;19997;-75
2022/08/26 01:51:17;;;;;;;4.72;4.10;;;24.60;99.90;;;;;;6184355;23;20012;-75
2022/08/26 01:53:43;;;;;;;5.05;3.95;;;24.50;99.90;;;;;;6184514;23;20059;-74
2022/08/26 01:56:11;;;;;;;4.20;3.67;;;24.50;99.90;;;;;;6158173;23;20033;-75
2022/08/26 01:59:09;;;;;;;4.65;3.67;;;24.40;99.90;;;;;;6184015;23;20438;-75
2022/08/26 02:01:36;;;;;;;3.95;3.67;;;24.40;99.90;;;;;;6155476;23;20009;-75
2022/08/26 02:04:17;;;;;;;4.13;3.05;;;24.40;99.90;;;;;;6157934;23;20012;-75
2022/08/26 02:06:43;;;;;;;4.00;3.70;;;24.50;99.90;;;;;;6184114;23;20007;-74
2022/08/26 02:09:09;;;;;;;5.90;3.97;;;24.40;99.90;;;;;;6184109;23;20068;-75
2022/08/26 02:11:35;;;;;;;4.85;4.15;;;24.40;99.90;;;;;;6184333;23;20337;-74
2022/08/26 02:14:08;;;;;;;4.10;3.67;;;24.30;99.90;;;;;;6157693;23;20012;-74
2022/08/26 02:16:41;;;;;;;5.20;3.78;;;24.30;99.90;;;;;;6184266;23;20071;-75
2022/08/26 02:19:16;;;;;;;3.80;3.33;;;24.20;99.90;;;;;;6158031;23;20005;-75
2022/08/26 02:21:43;;;;;;;4.57;3.95;;;24.20;99.90;;;;;;6157527;23;20012;-75
2022/08/26 02:24:21;;;;;;;4.40;3.47;;;24.20;99.90;;;;;;6184206;23;20108;-75
2022/08/26 02:26:47;;;;;;;5.60;3.55;;;24.20;99.90;;;;;;6157481;23;20012;-74
2022/08/26 02:29:25;;;;;;;3.92;3.42;;;24.10;99.90;;;;;;6157429;23;20016;-74
2022/08/26 02:31:53;;;;;;;3.90;3.60;;;24.10;99.90;;;;;;6183650;23;20008;-75
2022/08/26 02:34:33;;;;;;;5.82;4.40;;;24.20;99.90;;;;;;6157394;23;20047;-75
2022/08/26 02:37:08;;;;;;;6.30;3.60;;;24.20;99.90;;;;;;6183919;23;20067;-75
2022/08/26 02:39:36;;;;;;;3.50;3.30;;;24.10;99.90;;;;;;6184072;23;20001;-75
2022/08/26 02:42:04;;;;;;;3.55;3.35;;;24.00;99.90;;;;;;6183959;23;20380;-74
2022/08/26 02:44:30;;;;;;;9.05;3.60;;;24.00;99.90;;;;;;6183938;23;20008;-75
2022/08/26 02:46:56;;;;;;;4.05;3.58;;;24.00;99.90;;;;;;6183565;23;20005;-75
2022/08/26 02:49:23;;;;;;;4.75;3.78;;;24.00;99.90;;;;;;6184021;23;20381;-74
2022/08/26 02:51:49;;;;;;;4.75;4.40;;;23.90;99.90;;;;;;6183886;23;20001;-75
2022/08/26 02:54:16;;;;;;;5.47;3.53;;;23.90;99.90;;;;;;6183788;23;20012;-75
2022/08/26 02:56:43;;;;;;;3.95;3.75;;;23.90;99.90;;;;;;6183735;23;20001;-74
2022/08/26 02:59:11;;;;;;;4.25;3.92;;;23.80;99.90;;;;;;6183989;23;20012;-75
2022/08/26 03:01:37;;;;;;;8.15;4.25;;;23.70;99.90;;;;;;6183595;23;20028;-74
2022/08/26 03:04:07;;;;;;;4.38;4.07;;;23.70;99.90;;;;;;6183462;23;20001;-75
2022/08/26 03:06:32;;;;;;;6.47;4.10;;;23.70;99.90;;;;;;6183470;23;20003;-75
2022/08/26 03:08:58;;;;;;;4.95;4.30;;;23.70;99.90;;;;;;6183774;23;20075;-75
2022/08/26 03:11:24;;;;;;;3.88;3.63;;;23.60;99.90;;;;;;6183488;23;20009;-75
2022/08/26 03:13:50;;;;;;;5.70;3.67;;;23.60;99.90;;;;;;6157229;23;20410;-74
2022/08/26 03:16:17;;;;;;;3.97;3.50;;;23.70;99.90;;;;;;6183564;23;20132;-75
2022/08/26 03:18:43;;;;;;;7.32;4.68;;;23.70;99.90;;;;;;6183449;23;20132;-75
2022/08/26 03:21:12;;;;;;;4.43;3.97;;;23.60;99.90;;;;;;6183481;23;20449;-75
2022/08/26 03:23:39;;;;;;;4.05;3.58;;;23.60;99.90;;;;;;6183548;23;20024;-75
2022/08/26 03:26:06;;;;;;;4.32;3.90;;;23.50;99.90;;;;;;6183551;23;20001;-75
2022/08/26 03:28:32;;;;;;;4.60;4.30;;;23.50;99.90;;;;;;6183450;23;20021;-75
2022/08/26 03:30:58;;;;;;;8.80;4.20;;;23.50;99.90;;;;;;6157080;23;20016;-75
2022/08/26 03:33:24;;;;;;;5.72;3.85;;;23.60;99.90;;;;;;6183547;23;19997;-74
2022/08/26 03:35:51;;;;;;;4.63;3.88;;;23.50;99.90;;;;;;6183431;23;20063;-75
2022/08/26 03:38:19;;;;;;;4.20;3.90;;;23.50;99.90;;;;;;6183235;23;20449;-75
2022/08/26 03:40:45;;;;;;;4.10;3.70;;;23.50;99.90;;;;;;6183451;23;20445;-75
2022/08/26 03:43:12;;;;;;;7.22;4.18;;;23.50;99.90;;;;;;6157266;23;20005;-75
2022/08/26 03:45:39;;;;;;;4.57;4.20;;;23.50;99.90;;;;;;6183406;23;20063;-75
2022/08/26 03:48:05;;;;;;;4.07;3.65;;;23.60;99.90;;;;;;6183264;23;20004;-75
2022/08/26 03:50:31;;;;;;;6.53;4.10;;;23.50;99.90;;;;;;6183568;23;20012;-74
2022/08/26 03:52:57;;;;;;;5.97;4.53;;;23.50;99.90;;;;;;6183306;23;20518;-74
2022/08/26 03:55:26;;;;;;;5.15;4.03;;;23.50;99.90;;;;;;6183424;23;20001;-74
2022/08/26 03:57:52;;;;;;;4.88;3.85;;;23.40;99.90;;;;;;6183346;23;20012;-75
2022/08/26 04:00:18;;;;;;;5.25;4.10;;;23.40;99.90;;;;;;6156812;23;20008;-75
2022/08/26 04:02:47;;;;;;;4.22;3.90;;;23.40;99.90;;;;;;6183302;23;20426;-74
2022/08/26 04:05:14;;;;;;;4.10;3.75;;;23.40;99.90;;;;;;6183070;23;20084;-74
2022/08/26 04:07:41;;;;;;;4.63;4.22;;;23.30;99.90;;;;;;6183254;23;19998;-75
2022/08/26 04:10:09;;;;;;;7.95;4.43;;;23.30;99.90;;;;;;6156863;23;20009;-74
2022/08/26 04:12:36;;;;;;;4.72;4.32;;;23.30;99.90;;;;;;6156926;23;20223;-75
2022/08/26 04:15:09;;;;;;;5.28;4.72;;;23.30;99.90;;;;;;6183229;23;20043;-74
2022/08/26 04:17:35;;;;;;;4.07;3.78;;;23.30;99.90;;;;;;6183053;23;19997;-75
2022/08/26 04:20:01;;;;;;;7.70;4.35;;;23.30;99.90;;;;;;6156902;23;20009;-75
2022/08/26 04:22:27;;;;;;;4.47;4.07;;;23.20;99.90;;;;;;6185136;23;20044;-74
2022/08/26 04:24:53;;;;;;;6.35;4.50;;;23.20;99.90;;;;;;6184852;23;19997;-75
2022/08/26 04:27:18;;;;;;;4.45;4.15;;;23.20;99.90;;;;;;6185133;23;20333;-75
2022/08/26 04:29:45;;;;;;;4.25;3.53;;;23.20;99.90;;;;;;6184706;23;20004;-75
2022/08/26 04:32:11;;;;;;;6.40;4.30;;;23.20;99.90;;;;;;6185009;23;20001;-75
2022/08/26 04:34:38;;;;;;;4.40;4.10;;;23.20;99.90;;;;;;6185053;23;20165;-74
2022/08/26 04:37:05;;;;;;;8.40;4.40;;;23.20;99.90;;;;;;6185092;23;20467;-75
2022/08/26 04:39:31;;;;;;;5.95;4.70;;;23.10;99.90;;;;;;6184916;23;20009;-75
2022/08/26 04:41:57;;;;;;;7.55;4.10;;;23.10;99.90;;;;;;6184883;23;20444;-75
2022/08/26 04:44:26;;;;;;;5.13;4.22;;;23.10;99.90;;;;;;6184914;23;20077;-74
2022/08/26 04:46:52;;;;;;;5.00;4.55;;;23.10;99.90;;;;;;6184476;23;19997;-74
2022/08/26 04:49:19;;;;;;;5.10;4.53;;;23.10;99.90;;;;;;6185015;23;20082;-74
2022/08/26 04:51:46;;;;;;;7.65;4.28;;;23.10;99.90;;;;;;6158551;23;20009;-74
2022/08/26 04:54:12;;;;;;;9.15;4.45;;;23.10;99.90;;;;;;6158342;23;20009;-75
2022/08/26 04:56:41;;;;;;;6.15;4.35;;;23.00;99.90;;;;;;6158566;23;20442;-74
2022/08/26 04:59:14;;;;;;;7.45;3.92;;;23.10;99.90;;;;;;6184887;23;20021;-74
2022/08/26 05:01:45;;;;;;;4.85;3.85;;;23.10;99.90;;;;;;6183751;23;20329;-74
2022/08/26 05:04:12;;;;;;;4.55;4.13;;;23.00;99.90;;;;;;6183372;23;20012;-75
2022/08/26 05:06:37;;;;;;;4.38;3.97;;;23.10;99.90;;;;;;6183653;23;20001;-75
2022/08/26 05:09:04;;;;;;;5.90;4.07;;;23.10;99.90;;;;;;6183479;23;20372;-74
2022/08/26 05:11:30;;;;;;;5.20;4.70;;;23.10;99.90;;;;;;6183623;23;20430;-74
2022/08/26 05:13:55;;;;;;;4.38;3.97;;;23.10;99.90;;;;;;6183638;23;20059;-74
2022/08/26 05:16:21;;;;;;;4.45;4.15;;;23.10;99.90;;;;;;6183123;23;20101;-74
2022/08/26 05:18:47;;;;;;;7.13;4.20;;;23.10;99.90;;;;;;6183270;23;20008;-74
2022/08/26 05:21:21;;;;;;;7.50;5.20;;;23.20;99.90;;;;;;6183674;23;20319;-74
2022/08/26 05:23:50;;;;;;;7.80;4.50;;;23.10;99.90;;;;;;6158344;23;20001;-74
2022/08/26 05:26:19;;;;;;;5.88;4.50;;;23.20;99.90;;;;;;6158154;23;20005;-74
2022/08/26 05:28:45;;;;;;;5.15;4.65;;;23.10;99.90;;;;;;6184717;23;20004;-74
2022/08/26 05:31:22;;;;;;;4.75;4.13;;;23.20;99.90;;;;;;6158413;23;20009;-74
2022/08/26 05:33:47;;;;;;;4.60;4.20;;;23.30;99.90;;;;;;6157862;23;20009;-75
2022/08/26 05:36:16;;;;;;;4.68;4.20;;;23.30;99.90;;;;;;6183770;23;20396;-75
2022/08/26 05:38:43;;;;;;;4.82;4.00;;;23.30;99.90;;;;;;6184638;23;20036;-75
2022/08/26 05:41:22;;;;;;;5.55;4.70;;;23.30;99.90;;;;;;6184209;23;20034;-75
2022/08/26 05:43:48;;;;;;;4.95;4.30;;;23.30;99.90;;;;;;6182264;23;20001;-74
2022/08/26 05:46:13;;;;;;;4.55;4.10;;;23.40;99.90;;;;;;6181920;23;20001;-75
2022/08/26 05:48:40;;;;;;;6.80;4.45;;;23.40;99.90;;;;;;6182155;23;20060;-75
2022/08/26 05:51:09;;;;;;;5.15;4.57;;;23.40;99.90;;;;;;6182178;23;20001;-75
2022/08/26 05:53:36;;;;;;;4.60;4.25;;;23.50;99.90;;;;;;6182023;23;20005;-75
2022/08/26 05:56:04;;;;;;;5.57;4.65;;;23.50;99.90;;;;;;6155354;23;20024;-75
2022/08/26 05:58:30;;;;;;;6.53;4.10;;;23.60;99.90;;;;;;6184190;23;20031;-75
2022/08/26 06:01:05;;;;;;;5.88;4.35;;;23.60;99.90;;;;;;6158123;23;20031;-75
2022/08/26 06:03:35;;;;;;;8.45;4.95;;;23.60;99.90;;;;;;6157955;23;20015;-75
2022/08/26 06:06:07;;;;;;;4.38;4.07;;;23.70;99.90;;;;;;6184137;23;20029;-75
2022/08/26 06:08:34;;;;;;;5.63;4.63;;;23.70;99.90;;;;;;6184260;23;20032;-75
2022/08/26 06:11:01;;;;;;;6.85;4.68;;;23.70;99.90;;;;;;6184289;23;20008;-75
2022/08/26 06:13:29;;;;;;;14.10;5.63;;;23.80;99.90;;;;;;6184148;23;20076;-75
2022/08/26 06:15:55;;;;;;;11.82;5.82;;;23.80;99.90;;;;;;6183742;23;20005;-75
2022/08/26 06:18:33;;;;;;;12.75;5.53;;;23.90;99.90;;;;;;6184264;23;20357;-75
2022/08/26 06:21:00;;;;;;;6.50;4.93;;;23.90;99.90;;;;;;6183911;23;20024;-75
2022/08/26 06:26:15;;;;;;;9.27;5.13;;;24.00;99.90;;;;;;6183725;23;20015;-75
2022/08/26 06:28:44;;;;;;;5.45;5.05;;;24.10;99.90;;;;;;6157446;23;20009;-75
2022/08/26 06:31:10;;;;;;;8.55;5.05;;;24.10;99.90;;;;;;6183485;23;20116;-75
2022/08/26 06:33:35;;;;;;;5.50;4.93;;;24.20;99.90;;;;;;6155946;23;20040;-75
2022/08/26 06:36:02;;;;;;;8.90;5.05;;;24.20;99.90;;;;;;6183724;23;20000;-75
2022/08/26 06:38:28;;;;;;;5.15;4.65;;;24.30;99.90;;;;;;6157420;23;20009;-75
2022/08/26 06:40:54;;;;;;;4.88;4.38;;;24.30;99.90;;;;;;6183844;23;20036;-75
2022/08/26 06:43:25;;;;;;;4.95;4.15;;;24.40;99.90;;;;;;6182420;23;20001;-75
2022/08/26 06:46:03;;;;;;;4.88;4.47;;;24.40;99.90;;;;;;6181947;23;19998;-75
2022/08/26 06:48:28;;;;;;;8.40;4.40;;;24.50;99.90;;;;;;6182562;23;20036;-75
2022/08/26 06:51:13;;;;;;;5.15;4.32;;;24.50;99.90;;;;;;6182385;23;20001;-76
2022/08/26 06:53:41;;;;;;;4.90;4.40;;;24.60;99.90;;;;;;6182364;23;20083;-75
2022/08/26 06:56:09;;;;;;;4.95;4.45;;;24.60;99.90;;;;;;6155689;23;20004;-75
2022/08/26 06:58:37;;;;;;;4.47;4.18;;;24.70;99.90;;;;;;6183530;23;20005;-75
2022/08/26 07:01:21;;;;;;;4.60;4.30;;;24.70;99.90;;;;;;6183741;23;20095;-75
2022/08/26 07:03:49;;;;;;;4.57;4.18;;;24.80;99.90;;;;;;6183769;23;20001;-76
2022/08/26 07:06:18;;;;;;;4.38;3.97;;;24.80;99.90;;;;;;6183545;23;20067;-75
2022/08/26 07:08:45;;;;;;;4.60;4.20;;;24.90;99.90;;;;;;6183644;23;20170;-75
2022/08/26 07:11:11;;;;;;;4.80;4.40;;;25.00;99.90;;;;;;6183540;23;20040;-75
2022/08/26 07:13:37;;;;;;;4.80;4.22;;;25.00;99.90;;;;;;6183679;23;20008;-75
2022/08/26 07:16:04;;;;;;;5.00;4.50;;;25.00;99.90;;;;;;6183476;23;20357;-76
2022/08/26 07:18:32;;;;;;;5.65;5.07;;;25.00;99.90;;;;;;6183472;23;20001;-75
2022/08/26 07:21:04;;;;;;;4.88;4.40;;;25.10;99.90;;;;;;6183556;23;20044;-75
2022/08/26 07:23:30;;;;;;;9.60;4.53;;;25.20;99.90;;;;;;6183664;23;20426;-76
2022/08/26 07:25:56;;;;;;;7.10;5.13;;;25.30;99.90;;;;;;6183582;23;20000;-75
2022/08/26 07:28:22;;;;;;;6.07;5.18;;;25.40;99.90;;;;;;6183492;23;20001;-75
2022/08/26 07:30:48;;;;;;;5.20;4.60;;;25.40;99.90;;;;;;6183565;23;20032;-75
2022/08/26 07:33:16;;;;;;;8.13;5.90;;;25.40;99.90;;;;;;6183455;23;20005;-75
2022/08/26 07:35:43;;;;;;;6.00;5.40;;;25.40;99.90;;;;;;6183411;23;20028;-75
2022/08/26 07:38:09;;;;;;;8.05;5.68;;;25.50;99.90;;;;;;6156946;23;20425;-75
2022/08/26 07:40:35;;;;;;;10.85;5.40;;;25.60;99.90;;;;;;6183466;23;20001;-75
2022/08/26 07:43:04;;;;;;;8.20;5.10;;;25.50;99.90;;;;;;6183383;23;20005;-75
2022/08/26 07:45:29;;;;;;;8.02;4.95;;;25.60;99.90;;;;;;6156930;23;20005;-75
2022/08/26 07:47:55;;;;;;;5.95;5.18;;;25.70;99.90;;;;;;6183344;23;20008;-75
2022/08/26 07:50:21;;;;;;;6.72;5.28;;;25.70;99.90;;;;;;6183621;23;20009;-75
2022/08/26 07:52:50;;;;;;;8.43;5.03;;;25.60;99.90;;;;;;6183193;23;20387;-76
2022/08/26 07:55:16;;;;;;;5.95;5.43;;;25.80;99.90;;;;;;6157002;23;20442;-75
2022/08/26 07:57:42;;;;;;;9.57;5.53;;;25.80;99.90;;;;;;6185401;23;20071;-75
2022/08/26 08:00:12;;;;;;;6.53;5.43;;;25.90;99.90;;;;;;6185390;23;20433;-75
2022/08/26 08:02:38;;;;;;;5.90;5.40;;;26.00;99.90;;;;;;6158846;23;20052;-75
2022/08/26 08:05:05;;;;;;;6.65;5.47;;;25.90;99.90;;;;;;6185038;23;20449;-75
2022/08/26 08:07:31;;;;;;;7.07;5.57;;;25.90;99.90;;;;;;6185402;23;19997;-75
2022/08/26 08:09:56;;;;;;;6.28;5.50;;;25.90;99.90;;;;;;6158901;23;20011;-75
2022/08/26 08:12:22;;;;;;;8.95;5.43;;;25.90;99.90;;;;;;6158600;23;20004;-76
2022/08/26 08:14:49;;;;;;;7.18;6.07;;;26.00;99.90;;;;;;6185318;23;20001;-75
2022/08/26 08:17:15;;;;;;;5.68;5.13;;;26.00;99.90;;;;;;6158689;23;20005;-75
2022/08/26 08:19:41;;;;;;;7.50;5.55;;;26.20;99.90;;;;;;6185134;23;20005;-75
2022/08/26 08:22:07;;;;;;;14.18;5.82;;;26.30;99.90;;;;;;6185116;23;20055;-76
2022/08/26 08:24:33;;;;;;;8.43;4.78;;;26.30;99.90;;;;;;6158582;23;20005;-75
2022/08/26 08:27:02;;;;;;;6.53;5.43;;;26.30;99.90;;;;;;6185004;23;20004;-75
2022/08/26 08:29:28;;;;;;;6.63;5.25;;;26.30;99.90;;;;;;6158643;23;20349;-75
2022/08/26 08:31:57;;;;;;;5.55;4.68;;;26.30;99.90;;;;;;6185311;23;20001;-75
2022/08/26 08:34:25;;;;;;;6.88;5.38;;;26.30;99.90;;;;;;6184459;23;20040;-75
2022/08/26 08:36:50;;;;;;;7.50;5.10;;;26.30;99.90;;;;;;6184837;23;20005;-75
2022/08/26 08:39:17;;;;;;;6.18;5.30;;;26.30;99.90;;;;;;6185090;23;20330;-76
2022/08/26 08:41:51;;;;;;;7.68;5.68;;;26.30;99.90;;;;;;6158761;23;20080;-75
2022/08/26 08:44:23;;;;;;;10.02;5.75;;;26.40;99.90;;;;;;6185202;23;20009;-76
2022/08/26 08:47:04;;;;;;;6.85;6.15;;;26.50;99.90;;;;;;6158372;23;20384;-75
2022/08/26 08:49:32;;;;;;;10.60;7.07;;;26.60;99.90;;;;;;6184883;23;20036;-75
2022/08/26 08:52:12;;;;;;;6.97;5.70;;;26.60;99.90;;;;;;6184903;23;20429;-75
2022/08/26 08:54:38;;;;;;;10.77;5.60;;;26.50;99.90;;;;;;6184997;23;20500;-75
2022/08/26 08:57:11;;;;;;;7.85;5.93;;;26.60;99.90;;;;;;6158329;23;20032;-75
2022/08/26 08:59:52;;;;;;;6.82;5.90;;;26.60;99.90;;;;;;6158613;23;20140;-75
2022/08/26 09:02:44;;;;;;;8.32;6.32;;;26.60;99.90;;;;;;6158295;23;20115;-76
2022/08/26 09:05:09;;;;;;;;;;;26.60;99.90;;;;;;6168822;23;20028;-76
2022/08/26 09:07:44;;;;;;;9.93;6.45;;;26.60;99.90;;;;;;6184041;23;20232;-75
2022/08/26 09:10:37;;;;;;;6.10;5.55;;;26.60;99.90;;;;;;6184782;23;19997;-75
2022/08/26 09:13:16;;;;;;;7.22;6.50;;;26.60;99.90;;;;;;6184614;23;20005;-75
2022/08/26 09:15:49;;;;;;;9.07;5.65;;;26.70;99.90;;;;;;6184591;23;20005;-75
2022/08/26 09:18:39;;;;;;;9.75;6.13;;;26.80;99.90;;;;;;6184655;23;19997;-75
2022/08/26 09:21:09;;;;;;;6.47;5.85;;;26.90;99.90;;;;;;6184586;23;20005;-75
2022/08/26 09:23:38;;;;;;;6.05;5.57;;;27.00;99.90;;;;;;6184735;23;19997;-76
2022/08/26 09:26:12;;;;;;;6.30;5.40;;;26.90;99.90;;;;;;6184568;23;19993;-75
2022/08/26 09:28:43;;;;;;;9.57;6.05;;;27.00;99.90;;;;;;6184534;23;20001;-75
2022/08/26 09:31:20;;;;;;;7.97;5.40;;;27.00;99.90;;;;;;6158102;23;20005;-75
2022/08/26 09:34:03;;;;;;;9.15;5.80;;;27.20;99.90;;;;;;6157933;23;20269;-75
2022/08/26 09:36:40;;;;;;;6.10;5.53;;;27.20;99.90;;;;;;6184347;23;20001;-75
2022/08/26 09:39:27;;;;;;;10.65;6.10;;;27.20;99.90;;;;;;6184492;23;19993;-75
2022/08/26 09:42:04;;;;;;;6.93;5.82;;;27.10;99.90;;;;;;6184278;23;20056;-75
2022/08/26 09:44:31;;;;;;;7.53;6.28;;;27.20;99.90;;;;;;6157957;23;20005;-75
2022/08/26 09:47:05;;;;;;;7.65;5.50;;;27.40;99.90;;;;;;6157939;23;20005;-75
2022/08/26 09:49:35;;;;;;;8.40;6.50;;;27.40;99.90;;;;;;6184417;23;20433;-75
2022/08/26 09:52:13;;;;;;;8.15;5.68;;;27.40;99.90;;;;;;6158142;23;20008;-76
2022/08/26 09:54:40;;;;;;;7.85;5.70;;;27.50;99.90;;;;;;6158010;23;20005;-75
2022/08/26 09:57:34;;;;;;;6.75;5.82;;;27.50;99.90;;;;;;6184132;23;20005;-75
2022/08/26 10:00:00;;;;;;;8.05;5.03;;;27.50;99.90;;;;;;6129231;23;20009;-75
2022/08/26 10:02:35;;;;;;;6.22;5.63;;;27.70;99.90;;;;;;6184153;23;20009;-76
2022/08/26 10:05:07;;;;;;;6.90;5.05;;;27.70;99.90;;;;;;6183575;23;20009;-75
2022/08/26 10:07:33;;;;;;;6.97;5.18;;;27.70;99.90;;;;;;6183990;23;20429;-75
2022/08/26 10:10:02;;;;;;;9.60;6.05;;;27.70;99.90;;;;;;6184067;23;20008;-75
2022/08/26 10:12:31;;;;;;;5.50;4.90;;;27.80;99.90;;;;;;6184118;23;20005;-75
2022/08/26 10:15:02;;;;;;;6.10;5.45;;;27.80;99.90;;;;;;6184262;23;20001;-75
2022/08/26 10:17:34;;;;;;;8.48;6.43;;;27.90;99.90;;;;;;6184010;23;20425;-75
2022/08/26 10:20:24;;;;;;;6.40;5.65;;;27.90;99.90;;;;;;6184018;23;20004;-75
2022/08/26 10:23:05;;;;;;;6.38;5.70;;;27.90;99.90;;;;;;6183970;23;20028;-76
2022/08/26 10:25:44;;;;;;;7.63;5.60;;;27.90;99.90;;;;;;6184191;23;20037;-76
2022/08/26 10:28:25;;;;;;;9.70;5.35;;;28.00;99.90;;;;;;6183650;23;20024;-75
2022/08/26 10:31:03;;;;;;;5.90;5.38;;;28.10;99.90;;;;;;6183952;23;20005;-75
2022/08/26 10:33:32;;;;;;;7.70;5.40;;;28.20;99.90;;;;;;6184034;23;20047;-75
2022/08/26 10:36:47;;;;;;;9.82;5.28;;;28.40;99.90;;;;;;6183693;23;20005;-75
2022/08/26 10:38:54;;;;;;;8.57;4.97;;;28.60;99.90;;;;;;6183779;23;20025;-76
2022/08/26 10:41:23;;;;;;;8.55;6.07;;;28.50;99.80;;;;;;6184014;23;20056;-76
2022/08/26 10:44:10;;;;;;;12.60;5.47;;;28.40;99.80;;;;;;6157498;23;20338;-75
2022/08/26 10:46:52;;;;;;;7.95;5.47;;;28.40;99.30;;;;;;6183711;23;20007;-75
2022/08/26 10:49:18;;;;;;;6.97;5.40;;;28.40;99.90;;;;;;6183751;23;20001;-75
2022/08/26 10:51:55;;;;;;;9.38;5.20;;;28.50;99.90;;;;;;6183827;23;20503;-75
2022/08/26 10:54:36;;;;;;;7.30;5.72;;;28.60;99.90;;;;;;6183764;23;20036;-75
2022/08/26 10:57:06;;;;;;;5.55;5.13;;;28.80;99.90;;;;;;6183690;23;20012;-75
2022/08/26 10:59:38;;;;;;;9.80;5.45;;;28.90;99.90;;;;;;6183802;23;20008;-75
2022/08/26 11:02:39;;;;;;;9.02;5.15;;;28.90;99.90;;;;;;6157224;23;20005;-75
2022/08/26 11:05:15;;;;;;;10.52;5.65;;;29.10;99.90;;;;;;6176464;23;20021;-75
2022/08/26 11:07:45;;;;;;;5.65;4.63;;;29.20;99.80;;;;;;6183590;23;20009;-75
2022/08/26 11:10:37;;;;;;;6.30;5.22;;;29.20;99.80;;;;;;6157222;23;20005;-75
2022/08/26 11:13:05;;;;;;;5.85;5.18;;;29.30;99.40;;;;;;6183439;23;20004;-75
2022/08/26 11:15:30;;;;;;;7.80;5.10;;;29.30;98.60;;;;;;6156908;23;20028;-75
2022/08/26 11:18:06;;;;;;;5.40;4.80;;;29.30;97.50;;;;;;6183628;23;20005;-75
2022/08/26 11:20:39;;;;;;;6.05;5.45;;;29.30;98.10;;;;;;6183409;23;20437;-75
2022/08/26 11:23:23;;;;;;;7.72;5.97;;;29.30;97.10;;;;;;6183533;23;20001;-75
2022/08/26 11:26:04;;;;;;;5.90;5.30;;;29.20;98.10;;;;;;6183314;23;20430;-75
2022/08/26 11:28:44;;;;;;;5.32;4.80;;;29.30;98.70;;;;;;6183449;23;20560;-75
2022/08/26 11:31:32;;;;;;;7.53;4.80;;;29.30;98.50;;;;;;6156704;23;20005;-75
2022/08/26 11:33:58;;;;;;;6.00;4.72;;;29.30;98.10;;;;;;6158097;23;20088;-75
2022/08/26 11:36:53;;;;;;;5.53;5.03;;;29.40;97.60;;;;;;6183279;23;20087;-75
2022/08/26 11:39:23;;;;;;;6.00;5.35;;;29.50;98.00;;;;;;6183568;23;20005;-75
2022/08/26 11:41:51;;;;;;;7.75;5.03;;;29.60;97.60;;;;;;6183513;23;20009;-75
2022/08/26 11:44:27;;;;;;;5.60;5.10;;;29.60;97.40;;;;;;6183568;23;20051;-75
2022/08/26 11:46:58;;;;;;;6.40;5.85;;;29.60;97.40;;;;;;6156853;23;20005;-76
2022/08/26 11:49:27;;;;;;;6.18;5.18;;;29.60;97.00;;;;;;6183392;23;20028;-75
2022/08/26 11:52:07;;;;;;;5.90;5.32;;;29.50;97.30;;;;;;6183454;23;20005;-75
2022/08/26 11:54:33;;;;;;;5.80;5.35;;;29.60;97.60;;;;;;6156851;23;20044;-75
2022/08/26 11:56:59;;;;;;;7.78;5.18;;;29.70;97.60;;;;;;6183045;23;19997;-75
2022/08/26 11:59:32;;;;;;;6.57;5.65;;;29.80;97.50;;;;;;6183488;23;20001;-75
2022/08/26 12:01:59;;;;;;;5.40;4.90;;;29.90;97.80;;;;;;6183274;23;20001;-75
2022/08/26 12:04:36;;;;;;;9.20;6.57;;;29.90;96.80;;;;;;6183225;23;20064;-75
2022/08/26 12:07:07;;;;;;;6.55;5.70;;;30.00;96.30;;;;;;6156654;23;20377;-75
2022/08/26 12:09:35;;;;;;;5.60;4.97;;;30.00;97.20;;;;;;6183379;23;20377;-75
2022/08/26 12:12:12;;;;;;;7.80;5.53;;;30.00;96.50;;;;;;6157071;23;20043;-75
2022/08/26 12:14:38;;;;;;;6.30;4.57;;;30.00;96.30;;;;;;6183178;23;20008;-74
2022/08/26 12:17:18;;;;;;;5.50;4.97;;;30.00;96.70;;;;;;6156976;23;20009;-75
2022/08/26 12:19:44;;;;;;;10.20;4.85;;;30.00;97.40;;;;;;6183323;23;20002;-75
2022/08/26 12:22:27;;;;;;;7.68;5.78;;;30.00;96.00;;;;;;6183094;23;20011;-75
2022/08/26 12:25:06;;;;;;;5.82;5.32;;;30.00;96.90;;;;;;6183356;23;20432;-75
2022/08/26 12:27:39;;;;;;;6.00;5.38;;;30.00;96.20;;;;;;6182789;23;20001;-75
2022/08/26 12:30:09;;;;;;;9.23;5.47;;;30.00;96.70;;;;;;6156822;23;20009;-75
2022/08/26 12:32:38;;;;;;;5.88;5.03;;;30.10;96.20;;;;;;6183162;23;20388;-75
2022/08/26 12:35:10;;;;;;;7.55;6.15;;;30.20;96.80;;;;;;6183084;23;20004;-75
2022/08/26 12:37:39;;;;;;;6.93;4.90;;;30.30;96.20;;;;;;6156819;23;20432;-75
2022/08/26 12:40:24;;;;;;;5.88;5.38;;;30.40;95.50;;;;;;6183171;23;20329;-75
2022/08/26 12:42:50;;;;;;;6.65;4.93;;;30.40;95.00;;;;;;6184311;23;20084;-75
2022/08/26 12:46:03;;;;;;;7.65;5.35;;;30.30;95.30;;;;;;6185067;23;20008;-75
2022/08/26 12:48:32;;;;;;;5.60;4.85;;;30.40;95.30;;;;;;6171507;23;20084;-75
2022/08/26 12:50:58;;;;;;;6.30;5.00;;;30.40;95.30;;;;;;6185015;23;20004;-74
2022/08/26 12:53:30;;;;;;;6.55;5.95;;;30.60;95.00;;;;;;6184582;23;20543;-75
2022/08/26 12:56:03;;;;;;;5.97;5.38;;;30.60;94.30;;;;;;6184791;23;20007;-75
2022/08/26 12:58:38;;;;;;;6.47;5.47;;;30.60;94.70;;;;;;6158595;23;20336;-75
2022/08/26 13:01:07;;;;;;;5.32;4.82;;;30.80;95.00;;;;;;6184602;23;20036;-75
2022/08/26 13:03:32;;;;;;;7.05;5.13;;;30.80;94.30;;;;;;6158463;23;20011;-75
2022/08/26 13:06:30;;;;;;;4.72;4.32;;;30.90;94.60;;;;;;6180345;23;20100;-75
2022/08/26 13:09:24;;;;;;;5.68;4.80;;;31.00;94.60;;;;;;6184731;23;20003;-75